sensor_id;sensor_type;location;lat;lon;timestamp;temperature;humidity
66373;SHT30;53168;51.146;17.120;2023-11-21T00:00:14;8.76;87.40
66373;SHT30;53168;51.146;17.120;2023-11-21T00:03:11;8.75;87.40
66373;SHT30;53168;51.146;17.120;2023-11-21T00:05:46;8.73;87.38
66373;SHT30;53168;51.146;17.120;2023-11-21T00:08:22;8.74;87.35
66373;SHT30;53168;51.146;17.120;2023-11-21T00:10:56;8.72;87.31
66373;SHT30;53168;51.146;17.120;2023-11-21T00:13:31;8.70;87.36
66373;SHT30;53168;51.146;17.120;2023-11-21T00:16:08;8.68;87.39
66373;SHT30;53168;51.146;17.120;2023-11-21T00:19:05;8.66;87.40
66373;SHT30;53168;51.146;17.120;2023-11-21T00:56:51;8.56;87.20
66373;SHT30;53168;51.146;17.120;2023-11-21T00:59:37;8.56;87.20
66373;SHT30;53168;51.146;17.120;2023-11-21T01:02:12;8.54;87.20
66373;SHT30;53168;51.146;17.120;2023-11-21T01:04:47;8.54;87.20
66373;SHT30;53168;51.146;17.120;2023-11-21T01:07:21;8.52;87.20
66373;SHT30;53168;51.146;17.120;2023-11-21T01:09:55;8.49;87.20
66373;SHT30;53168;51.146;17.120;2023-11-21T01:12:31;8.48;87.22
66373;SHT30;53168;51.146;17.120;2023-11-21T01:15:08;8.48;87.25
66373;SHT30;53168;51.146;17.120;2023-11-21T01:17:43;8.47;87.25
66373;SHT30;53168;51.146;17.120;2023-11-21T01:20:32;8.46;87.26
66373;SHT30;53168;51.146;17.120;2023-11-21T01:23:07;8.43;87.30
66373;SHT30;53168;51.146;17.120;2023-11-21T01:25:41;8.41;87.30
66373;SHT30;53168;51.146;17.120;2023-11-21T01:28:17;8.40;87.30
66373;SHT30;53168;51.146;17.120;2023-11-21T01:30:51;8.37;87.32
66373;SHT30;53168;51.146;17.120;2023-11-21T01:33:27;8.37;87.35
66373;SHT30;53168;51.146;17.120;2023-11-21T01:36:03;8.35;87.39
66373;SHT30;53168;51.146;17.120;2023-11-21T01:38:40;8.35;87.37
66373;SHT30;53168;51.146;17.120;2023-11-21T01:41:19;8.36;87.37
66373;SHT30;53168;51.146;17.120;2023-11-21T01:44:00;8.36;87.40
66373;SHT30;53168;51.146;17.120;2023-11-21T01:46:43;8.35;87.40
66373;SHT30;53168;51.146;17.120;2023-11-21T01:49:19;8.35;87.40
66373;SHT30;53168;51.146;17.120;2023-11-21T01:51:56;8.34;87.40
66373;SHT30;53168;51.146;17.120;2023-11-21T01:54:41;8.34;87.40
66373;SHT30;53168;51.146;17.120;2023-11-21T01:57:17;8.32;87.40
66373;SHT30;53168;51.146;17.120;2023-11-21T01:59:55;8.32;87.40
66373;SHT30;53168;51.146;17.120;2023-11-21T02:02:31;8.32;87.40
66373;SHT30;53168;51.146;17.120;2023-11-21T02:05:06;8.32;87.40
66373;SHT30;53168;51.146;17.120;2023-11-21T02:07:41;8.30;87.40
66373;SHT30;53168;51.146;17.120;2023-11-21T02:10:20;8.30;87.40
66373;SHT30;53168;51.146;17.120;2023-11-21T02:12:58;8.30;87.40
66373;SHT30;53168;51.146;17.120;2023-11-21T02:15:37;8.29;87.40
66373;SHT30;53168;51.146;17.120;2023-11-21T02:18:13;8.29;87.40
66373;SHT30;53168;51.146;17.120;2023-11-21T02:20:48;8.28;87.40
66373;SHT30;53168;51.146;17.120;2023-11-21T02:23:22;8.27;87.43
66373;SHT30;53168;51.146;17.120;2023-11-21T02:26:00;8.27;87.44
66373;SHT30;53168;51.146;17.120;2023-11-21T02:28:35;8.24;87.50
66373;SHT30;53168;51.146;17.120;2023-11-21T02:31:10;8.24;87.51
66373;SHT30;53168;51.146;17.120;2023-11-21T02:33:46;8.22;87.52
66373;SHT30;53168;51.146;17.120;2023-11-21T02:36:21;8.21;87.59
66373;SHT30;53168;51.146;17.120;2023-11-21T02:38:56;8.21;87.59
66373;SHT30;53168;51.146;17.120;2023-11-21T02:41:34;8.22;87.60
66373;SHT30;53168;51.146;17.120;2023-11-21T02:44:12;8.22;87.60
66373;SHT30;53168;51.146;17.120;2023-11-21T02:47:44;8.24;87.60
66373;SHT30;53168;51.146;17.120;2023-11-21T02:50:18;8.24;87.59
66373;SHT30;53168;51.146;17.120;2023-11-21T02:52:54;8.25;87.60
66373;SHT30;53168;51.146;17.120;2023-11-21T02:55:31;8.24;87.60
66373;SHT30;53168;51.146;17.120;2023-11-21T02:58:06;8.23;87.60
66373;SHT30;53168;51.146;17.120;2023-11-21T03:00:40;8.21;87.64
66373;SHT30;53168;51.146;17.120;2023-11-21T03:03:15;8.19;87.70
66373;SHT30;53168;51.146;17.120;2023-11-21T03:37:36;8.29;87.82
66373;SHT30;53168;51.146;17.120;2023-11-21T03:40:13;8.30;87.83
66373;SHT30;53168;51.146;17.120;2023-11-21T03:42:47;8.29;87.87
66373;SHT30;53168;51.146;17.120;2023-11-21T03:45:23;8.28;87.88
66373;SHT30;53168;51.146;17.120;2023-11-21T03:47:57;8.28;87.90
66373;SHT30;53168;51.146;17.120;2023-11-21T03:50:32;8.27;87.90
66373;SHT30;53168;51.146;17.120;2023-11-21T03:53:06;8.26;87.90
66373;SHT30;53168;51.146;17.120;2023-11-21T03:55:40;8.25;87.91
66373;SHT30;53168;51.146;17.120;2023-11-21T03:58:15;8.25;87.95
66373;SHT30;53168;51.146;17.120;2023-11-21T04:00:49;8.25;88.00
66373;SHT30;53168;51.146;17.120;2023-11-21T04:03:24;8.25;87.98
66373;SHT30;53168;51.146;17.120;2023-11-21T04:05:59;8.25;87.98
66373;SHT30;53168;51.146;17.120;2023-11-21T04:08:33;8.26;87.96
66373;SHT30;53168;51.146;17.120;2023-11-21T04:11:08;8.29;87.94
66373;SHT30;53168;51.146;17.120;2023-11-21T04:13:43;8.28;87.91
66373;SHT30;53168;51.146;17.120;2023-11-21T04:16:18;8.28;87.91
66373;SHT30;53168;51.146;17.120;2023-11-21T04:18:53;8.28;87.91
66373;SHT30;53168;51.146;17.120;2023-11-21T04:21:28;8.28;87.94
66373;SHT30;53168;51.146;17.120;2023-11-21T04:24:03;8.27;87.96
66373;SHT30;53168;51.146;17.120;2023-11-21T04:26:38;8.28;87.95
66373;SHT30;53168;51.146;17.120;2023-11-21T04:29:12;8.28;87.95
66373;SHT30;53168;51.146;17.120;2023-11-21T04:31:46;8.28;87.96
66373;SHT30;53168;51.146;17.120;2023-11-21T04:34:21;8.28;87.95
66373;SHT30;53168;51.146;17.120;2023-11-21T04:37:00;8.28;87.93
66373;SHT30;53168;51.146;17.120;2023-11-21T04:39:38;8.28;87.91
66373;SHT30;53168;51.146;17.120;2023-11-21T04:42:12;8.28;87.90
66373;SHT30;53168;51.146;17.120;2023-11-21T04:44:46;8.27;87.90
66373;SHT30;53168;51.146;17.120;2023-11-21T04:47:20;8.27;87.90
66373;SHT30;53168;51.146;17.120;2023-11-21T04:49:54;8.26;87.90
66373;SHT30;53168;51.146;17.120;2023-11-21T04:52:29;8.24;87.89
66373;SHT30;53168;51.146;17.120;2023-11-21T04:55:04;8.21;87.88
66373;SHT30;53168;51.146;17.120;2023-11-21T04:57:41;8.20;87.90
66373;SHT30;53168;51.146;17.120;2023-11-21T05:00:17;8.18;87.86
66373;SHT30;53168;51.146;17.120;2023-11-21T05:02:53;8.16;87.81
66373;SHT30;53168;51.146;17.120;2023-11-21T05:05:30;8.16;87.80
66373;SHT30;53168;51.146;17.120;2023-11-21T05:08:10;8.15;87.75
66373;SHT30;53168;51.146;17.120;2023-11-21T05:10:48;8.14;87.70
66373;SHT30;53168;51.146;17.120;2023-11-21T05:16:39;8.10;87.69
66373;SHT30;53168;51.146;17.120;2023-11-21T05:19:13;8.09;87.69
66373;SHT30;53168;51.146;17.120;2023-11-21T05:21:47;8.06;87.70
66373;SHT30;53168;51.146;17.120;2023-11-21T05:24:21;8.04;87.70
66373;SHT30;53168;51.146;17.120;2023-11-21T05:26:55;8.02;87.71
66373;SHT30;53168;51.146;17.120;2023-11-21T05:29:28;8.01;87.79
66373;SHT30;53168;51.146;17.120;2023-11-21T05:32:08;8.02;87.80
66373;SHT30;53168;51.146;17.120;2023-11-21T05:34:51;8.02;87.80
66373;SHT30;53168;51.146;17.120;2023-11-21T05:37:31;8.04;87.81
66373;SHT30;53168;51.146;17.120;2023-11-21T05:40:09;8.05;87.88
66373;SHT30;53168;51.146;17.120;2023-11-21T05:42:48;8.07;87.89
66373;SHT30;53168;51.146;17.120;2023-11-21T05:45:50;8.08;87.87
66373;SHT30;53168;51.146;17.120;2023-11-21T05:48:24;8.08;87.90
66373;SHT30;53168;51.146;17.120;2023-11-21T05:50:58;8.08;87.90
66373;SHT30;53168;51.146;17.120;2023-11-21T05:53:33;8.08;87.90
66373;SHT30;53168;51.146;17.120;2023-11-21T05:56:09;8.06;87.94
66373;SHT30;53168;51.146;17.120;2023-11-21T05:59:06;8.05;87.99
66373;SHT30;53168;51.146;17.120;2023-11-21T06:01:46;8.03;88.00
66373;SHT30;53168;51.146;17.120;2023-11-21T06:04:20;8.04;88.00
66373;SHT30;53168;51.146;17.120;2023-11-21T06:06:55;8.04;88.00
66373;SHT30;53168;51.146;17.120;2023-11-21T06:09:32;8.03;88.00
66373;SHT30;53168;51.146;17.120;2023-11-21T06:12:14;8.02;88.00
66373;SHT30;53168;51.146;17.120;2023-11-21T06:14:48;8.01;88.00
66373;SHT30;53168;51.146;17.120;2023-11-21T06:17:23;8.01;88.01
66373;SHT30;53168;51.146;17.120;2023-11-21T06:19:59;8.00;88.03
66373;SHT30;53168;51.146;17.120;2023-11-21T06:22:36;8.02;88.09
66373;SHT30;53168;51.146;17.120;2023-11-21T06:25:13;8.01;88.08
66373;SHT30;53168;51.146;17.120;2023-11-21T06:27:49;8.01;88.09
66373;SHT30;53168;51.146;17.120;2023-11-21T06:30:25;8.01;88.10
66373;SHT30;53168;51.146;17.120;2023-11-21T06:33:00;8.02;88.10
66373;SHT30;53168;51.146;17.120;2023-11-21T06:35:35;8.04;88.10
66373;SHT30;53168;51.146;17.120;2023-11-21T06:38:13;8.06;88.10
66373;SHT30;53168;51.146;17.120;2023-11-21T06:40:49;8.08;88.07
66373;SHT30;53168;51.146;17.120;2023-11-21T06:43:24;8.10;88.02
66373;SHT30;53168;51.146;17.120;2023-11-21T06:45:59;8.12;88.02
66373;SHT30;53168;51.146;17.120;2023-11-21T06:48:36;8.13;88.00
66373;SHT30;53168;51.146;17.120;2023-11-21T06:51:24;8.16;88.00
66373;SHT30;53168;51.146;17.120;2023-11-21T06:53:59;8.18;88.00
66373;SHT30;53168;51.146;17.120;2023-11-21T06:56:54;8.19;88.00
66373;SHT30;53168;51.146;17.120;2023-11-21T06:59:39;8.22;87.97
66373;SHT30;53168;51.146;17.120;2023-11-21T07:02:13;8.24;87.94
66373;SHT30;53168;51.146;17.120;2023-11-21T07:04:49;8.25;87.90
66373;SHT30;53168;51.146;17.120;2023-11-21T07:07:24;8.27;87.90
66373;SHT30;53168;51.146;17.120;2023-11-21T07:09:59;8.27;87.87
66373;SHT30;53168;51.146;17.120;2023-11-21T07:12:34;8.26;87.89
66373;SHT30;53168;51.146;17.120;2023-11-21T07:15:57;8.26;87.90
66373;SHT30;53168;51.146;17.120;2023-11-21T07:20:08;8.26;87.91
66373;SHT30;53168;51.146;17.120;2023-11-21T07:22:47;8.28;87.90
66373;SHT30;53168;51.146;17.120;2023-11-21T07:25:21;8.30;87.90
66373;SHT30;53168;51.146;17.120;2023-11-21T07:27:56;8.32;87.90
66373;SHT30;53168;51.146;17.120;2023-11-21T07:30:31;8.32;87.92
66373;SHT30;53168;51.146;17.120;2023-11-21T07:33:18;8.35;87.95
66373;SHT30;53168;51.146;17.120;2023-11-21T07:35:57;8.36;87.92
66373;SHT30;53168;51.146;17.120;2023-11-21T07:39:07;8.40;87.94
66373;SHT30;53168;51.146;17.120;2023-11-21T07:42:59;8.45;87.94
66373;SHT30;53168;51.146;17.120;2023-11-21T07:46:25;8.49;87.90
66373;SHT30;53168;51.146;17.120;2023-11-21T07:49:39;8.54;87.87
66373;SHT30;53168;51.146;17.120;2023-11-21T07:52:35;8.56;87.80
66373;SHT30;53168;51.146;17.120;2023-11-21T07:55:40;8.59;87.80
66373;SHT30;53168;51.146;17.120;2023-11-21T07:59:22;8.62;87.72
66373;SHT30;53168;51.146;17.120;2023-11-21T08:02:01;8.61;87.66
66373;SHT30;53168;51.146;17.120;2023-11-21T08:04:35;8.60;87.68
66373;SHT30;53168;51.146;17.120;2023-11-21T08:07:13;8.59;87.69
66373;SHT30;53168;51.146;17.120;2023-11-21T08:10:19;8.59;87.68
66373;SHT30;53168;51.146;17.120;2023-11-21T08:29:49;8.73;87.48
66373;SHT30;53168;51.146;17.120;2023-11-21T08:32:35;8.76;87.43
66373;SHT30;53168;51.146;17.120;2023-11-21T08:35:12;8.79;87.43
66373;SHT30;53168;51.146;17.120;2023-11-21T08:38:00;8.80;87.40
66373;SHT30;53168;51.146;17.120;2023-11-21T08:40:42;8.83;87.40
66373;SHT30;53168;51.146;17.120;2023-11-21T08:43:21;8.85;87.37
66373;SHT30;53168;51.146;17.120;2023-11-21T08:46:11;8.82;87.30
66373;SHT30;53168;51.146;17.120;2023-11-21T08:49:31;8.82;87.30
66373;SHT30;53168;51.146;17.120;2023-11-21T08:52:27;8.85;87.30
66373;SHT30;53168;51.146;17.120;2023-11-21T08:58:18;9.04;87.21
66373;SHT30;53168;51.146;17.120;2023-11-21T09:01:21;9.17;87.14
66373;SHT30;53168;51.146;17.120;2023-11-21T09:08:17;9.50;86.86
66373;SHT30;53168;51.146;17.120;2023-11-21T09:12:19;9.63;86.52
66373;SHT30;53168;51.146;17.120;2023-11-21T09:15:00;9.71;86.47
66373;SHT30;53168;51.146;17.120;2023-11-21T09:17:36;9.71;86.23
66373;SHT30;53168;51.146;17.120;2023-11-21T09:20:12;9.65;86.09
66373;SHT30;53168;51.146;17.120;2023-11-21T09:22:47;9.65;86.19
66373;SHT30;53168;51.146;17.120;2023-11-21T09:25:21;9.68;86.18
66373;SHT30;53168;51.146;17.120;2023-11-21T09:27:55;9.70;86.18
66373;SHT30;53168;51.146;17.120;2023-11-21T09:33:43;9.62;86.02
66373;SHT30;53168;51.146;17.120;2023-11-21T09:36:23;9.60;86.04
66373;SHT30;53168;51.146;17.120;2023-11-21T09:39:02;9.57;86.00
66373;SHT30;53168;51.146;17.120;2023-11-21T09:46:28;9.55;85.95
66373;SHT30;53168;51.146;17.120;2023-11-21T09:49:04;9.52;85.94
66373;SHT30;53168;51.146;17.120;2023-11-21T09:51:48;9.51;85.90
66373;SHT30;53168;51.146;17.120;2023-11-21T09:54:37;9.44;85.86
66373;SHT30;53168;51.146;17.120;2023-11-21T09:57:30;9.45;86.04
66373;SHT30;53168;51.146;17.120;2023-11-21T10:00:22;9.49;86.10
66373;SHT30;53168;51.146;17.120;2023-11-21T10:06:37;9.57;86.19
66373;SHT30;53168;51.146;17.120;2023-11-21T10:09:42;9.57;86.17
66373;SHT30;53168;51.146;17.120;2023-11-21T10:12:37;9.56;86.19
66373;SHT30;53168;51.146;17.120;2023-11-21T10:15:28;9.50;86.08
66373;SHT30;53168;51.146;17.120;2023-11-21T10:18:08;9.39;85.99
66373;SHT30;53168;51.146;17.120;2023-11-21T10:20:43;9.31;86.05
66373;SHT30;53168;51.146;17.120;2023-11-21T10:23:29;9.25;86.13
66373;SHT30;53168;51.146;17.120;2023-11-21T10:26:14;9.19;86.20
66373;SHT30;53168;51.146;17.120;2023-11-21T10:29:03;9.13;86.20
66373;SHT30;53168;51.146;17.120;2023-11-21T10:32:05;9.06;86.20
66373;SHT30;53168;51.146;17.120;2023-11-21T10:34:39;8.98;86.21
66373;SHT30;53168;51.146;17.120;2023-11-21T10:37:14;8.92;86.25
66373;SHT30;53168;51.146;17.120;2023-11-21T10:39:51;8.88;86.30
66373;SHT30;53168;51.146;17.120;2023-11-21T10:42:29;8.82;86.29
66373;SHT30;53168;51.146;17.120;2023-11-21T10:45:07;8.77;86.28
66373;SHT30;53168;51.146;17.120;2023-11-21T10:47:45;8.67;86.18
66373;SHT30;53168;51.146;17.120;2023-11-21T10:50:21;8.51;86.00
66373;SHT30;53168;51.146;17.120;2023-11-21T10:53:00;8.39;85.99
66373;SHT30;53168;51.146;17.120;2023-11-21T10:55:37;8.25;85.95
66373;SHT30;53168;51.146;17.120;2023-11-21T10:58:19;8.13;85.92
66373;SHT30;53168;51.146;17.120;2023-11-21T11:00:55;8.04;85.97
66373;SHT30;53168;51.146;17.120;2023-11-21T11:03:32;8.01;86.01
66373;SHT30;53168;51.146;17.120;2023-11-21T11:06:22;7.98;86.02
66373;SHT30;53168;51.146;17.120;2023-11-21T11:09:04;8.01;86.04
66373;SHT30;53168;51.146;17.120;2023-11-21T11:11:46;8.07;86.08
66373;SHT30;53168;51.146;17.120;2023-11-21T11:14:21;8.12;86.03
66373;SHT30;53168;51.146;17.120;2023-11-21T11:16:56;8.13;85.98
66373;SHT30;53168;51.146;17.120;2023-11-21T11:19:40;8.08;85.89
66373;SHT30;53168;51.146;17.120;2023-11-21T11:22:29;7.99;85.80
66373;SHT30;53168;51.146;17.120;2023-11-21T11:25:38;7.88;85.83
66373;SHT30;53168;51.146;17.120;2023-11-21T11:28:54;7.78;85.83
66373;SHT30;53168;51.146;17.120;2023-11-21T11:31:52;7.70;85.84
66373;SHT30;53168;51.146;17.120;2023-11-21T11:34:41;7.64;85.89
66373;SHT30;53168;51.146;17.120;2023-11-21T11:37:37;7.57;85.82
66373;SHT30;53168;51.146;17.120;2023-11-21T11:40:13;7.49;85.77
66373;SHT30;53168;51.146;17.120;2023-11-21T11:43:01;7.43;85.78
66373;SHT30;53168;51.146;17.120;2023-11-21T11:46:14;7.36;85.79
66373;SHT30;53168;51.146;17.120;2023-11-21T11:49:10;7.29;85.67
66373;SHT30;53168;51.146;17.120;2023-11-21T11:52:52;7.17;85.52
66373;SHT30;53168;51.146;17.120;2023-11-21T11:56:00;7.08;85.50
66373;SHT30;53168;51.146;17.120;2023-11-21T11:59:04;7.03;85.50
66373;SHT30;53168;51.146;17.120;2023-11-21T12:01:48;6.99;85.44
66373;SHT30;53168;51.146;17.120;2023-11-21T12:04:34;6.91;85.31
66373;SHT30;53168;51.146;17.120;2023-11-21T12:07:16;6.84;85.35
66373;SHT30;53168;51.146;17.120;2023-11-21T12:10:17;6.80;85.30
66373;SHT30;53168;51.146;17.120;2023-11-21T12:13:20;6.75;85.31
66373;SHT30;53168;51.146;17.120;2023-11-21T12:16:05;6.71;85.32
66373;SHT30;53168;51.146;17.120;2023-11-21T12:18:41;6.69;85.38
66373;SHT30;53168;51.146;17.120;2023-11-21T12:25:00;6.51;85.19
66373;SHT30;53168;51.146;17.120;2023-11-21T12:28:00;6.42;85.20
66373;SHT30;53168;51.146;17.120;2023-11-21T12:31:06;6.31;85.19
66373;SHT30;53168;51.146;17.120;2023-11-21T12:34:39;6.18;85.12
66373;SHT30;53168;51.146;17.120;2023-11-21T12:43:23;5.85;85.14
66373;SHT30;53168;51.146;17.120;2023-11-21T12:46:06;5.79;85.20
66373;SHT30;53168;51.146;17.120;2023-11-21T12:49:25;5.72;85.14
66373;SHT30;53168;51.146;17.120;2023-11-21T12:52:00;5.59;85.01
66373;SHT30;53168;51.146;17.120;2023-11-21T12:54:41;5.49;85.03
66373;SHT30;53168;51.146;17.120;2023-11-21T12:57:22;5.42;85.08
66373;SHT30;53168;51.146;17.120;2023-11-21T13:04:00;5.24;85.11
66373;SHT30;53168;51.146;17.120;2023-11-21T13:06:52;5.19;85.19
66373;SHT30;53168;51.146;17.120;2023-11-21T13:09:55;5.15;85.29
66373;SHT30;53168;51.146;17.120;2023-11-21T13:12:26;5.13;85.33
66373;SHT30;53168;51.146;17.120;2023-11-21T13:14:57;5.10;85.36
66373;SHT30;53168;51.146;17.120;2023-11-21T13:17:38;5.05;85.41
66373;SHT30;53168;51.146;17.120;2023-11-21T13:20:10;5.01;85.43
66373;SHT30;53168;51.146;17.120;2023-11-21T13:22:49;4.96;85.49
66373;SHT30;53168;51.146;17.120;2023-11-21T13:25:30;4.87;85.44
66373;SHT30;53168;51.146;17.120;2023-11-21T13:28:03;4.82;85.48
66373;SHT30;53168;51.146;17.120;2023-11-21T13:30:33;4.79;85.60
66373;SHT30;53168;51.146;17.120;2023-11-21T13:33:08;4.75;85.57
66373;SHT30;53168;51.146;17.120;2023-11-21T13:35:47;4.69;85.50
66373;SHT30;53168;51.146;17.120;2023-11-21T13:39:16;4.63;85.60
66373;SHT30;53168;51.146;17.120;2023-11-21T13:41:48;4.57;85.60
66373;SHT30;53168;51.146;17.120;2023-11-21T13:45:21;4.53;85.61
66373;SHT30;53168;51.146;17.120;2023-11-21T13:48:00;4.43;85.50
66373;SHT30;53168;51.146;17.120;2023-11-21T13:50:31;4.35;85.52
66373;SHT30;53168;51.146;17.120;2023-11-21T13:53:06;4.31;85.62
66373;SHT30;53168;51.146;17.120;2023-11-21T13:55:53;4.26;85.66
66373;SHT30;53168;51.146;17.120;2023-11-21T13:58:25;4.25;85.69
66373;SHT30;53168;51.146;17.120;2023-11-21T14:01:08;4.23;85.75
66373;SHT30;53168;51.146;17.120;2023-11-21T14:03:53;4.17;85.70
66373;SHT30;53168;51.146;17.120;2023-11-21T14:06:28;4.13;85.77
66373;SHT30;53168;51.146;17.120;2023-11-21T14:09:05;4.11;85.72
66373;SHT30;53168;51.146;17.120;2023-11-21T14:11:36;4.08;85.72
66373;SHT30;53168;51.146;17.120;2023-11-21T14:14:15;4.04;85.71
66373;SHT30;53168;51.146;17.120;2023-11-21T14:16:46;4.00;85.70
66373;SHT30;53168;51.146;17.120;2023-11-21T14:19:19;3.97;85.69
66373;SHT30;53168;51.146;17.120;2023-11-21T14:21:49;3.94;85.70
66373;SHT30;53168;51.146;17.120;2023-11-21T14:24:19;3.91;85.70
66373;SHT30;53168;51.146;17.120;2023-11-21T14:26:50;3.89;85.75
66373;SHT30;53168;51.146;17.120;2023-11-21T14:29:21;3.84;85.76
66373;SHT30;53168;51.146;17.120;2023-11-21T14:31:52;3.82;85.81
66373;SHT30;53168;51.146;17.120;2023-11-21T14:34:25;3.81;85.90
66373;SHT30;53168;51.146;17.120;2023-11-21T14:36:56;3.77;85.90
66373;SHT30;53168;51.146;17.120;2023-11-21T14:39:29;3.71;85.89
66373;SHT30;53168;51.146;17.120;2023-11-21T14:42:16;3.66;85.88
66373;SHT30;53168;51.146;17.120;2023-11-21T14:45:30;3.61;85.82
66373;SHT30;53168;51.146;17.120;2023-11-21T14:48:10;3.57;85.85
66373;SHT30;53168;51.146;17.120;2023-11-21T14:51:22;3.52;85.80
66373;SHT30;53168;51.146;17.120;2023-11-21T14:54:16;3.49;85.82
66373;SHT30;53168;51.146;17.120;2023-11-21T14:56:56;3.43;85.80
66373;SHT30;53168;51.146;17.120;2023-11-21T14:59:27;3.37;85.75
66373;SHT30;53168;51.146;17.120;2023-11-21T15:02:01;3.33;85.73
66373;SHT30;53168;51.146;17.120;2023-11-21T15:04:53;3.32;85.80
66373;SHT30;53168;51.146;17.120;2023-11-21T15:07:30;3.31;85.80
66373;SHT30;53168;51.146;17.120;2023-11-21T15:10:01;3.30;85.81
66373;SHT30;53168;51.146;17.120;2023-11-21T15:12:43;3.27;85.79
66373;SHT30;53168;51.146;17.120;2023-11-21T15:15:16;3.22;85.70
66373;SHT30;53168;51.146;17.120;2023-11-21T15:17:47;3.17;85.70
66373;SHT30;53168;51.146;17.120;2023-11-21T15:20:18;3.15;85.71
66373;SHT30;53168;51.146;17.120;2023-11-21T15:22:53;3.15;85.72
66373;SHT30;53168;51.146;17.120;2023-11-21T15:29:43;3.08;85.62
66373;SHT30;53168;51.146;17.120;2023-11-21T15:32:34;3.04;85.67
66373;SHT30;53168;51.146;17.120;2023-11-21T15:35:15;3.02;85.70
66373;SHT30;53168;51.146;17.120;2023-11-21T15:38:35;3.00;85.74
66373;SHT30;53168;51.146;17.120;2023-11-21T15:41:30;3.00;85.80
66373;SHT30;53168;51.146;17.120;2023-11-21T15:57:01;2.89;85.70
66373;SHT30;53168;51.146;17.120;2023-11-21T16:00:15;2.88;85.70
66373;SHT30;53168;51.146;17.120;2023-11-21T16:06:21;2.86;85.65
66373;SHT30;53168;51.146;17.120;2023-11-21T16:20:55;2.69;85.40
66373;SHT30;53168;51.146;17.120;2023-11-21T16:23:36;2.66;85.40
66373;SHT30;53168;51.146;17.120;2023-11-21T16:26:13;2.62;85.40
66373;SHT30;53168;51.146;17.120;2023-11-21T16:29:03;2.59;85.49
66373;SHT30;53168;51.146;17.120;2023-11-21T16:31:38;2.56;85.49
66373;SHT30;53168;51.146;17.120;2023-11-21T16:34:15;2.51;85.43
66373;SHT30;53168;51.146;17.120;2023-11-21T16:36:54;2.46;85.40
66373;SHT30;53168;51.146;17.120;2023-11-21T16:39:28;2.42;85.47
66373;SHT30;53168;51.146;17.120;2023-11-21T16:42:03;2.40;85.50
66373;SHT30;53168;51.146;17.120;2023-11-21T16:44:40;2.37;85.52
66373;SHT30;53168;51.146;17.120;2023-11-21T16:48:00;2.33;85.51
66373;SHT30;53168;51.146;17.120;2023-11-21T16:54:10;2.22;85.54
66373;SHT30;53168;51.146;17.120;2023-11-21T16:56:54;2.20;85.60
66373;SHT30;53168;51.146;17.120;2023-11-21T17:00:25;2.17;85.54
66373;SHT30;53168;51.146;17.120;2023-11-21T17:03:19;2.16;85.51
66373;SHT30;53168;51.146;17.120;2023-11-21T17:05:58;2.12;85.50
66373;SHT30;53168;51.146;17.120;2023-11-21T17:12:20;2.05;85.50
66373;SHT30;53168;51.146;17.120;2023-11-21T17:15:07;2.03;85.50
66373;SHT30;53168;51.146;17.120;2023-11-21T17:18:28;2.00;85.50
66373;SHT30;53168;51.146;17.120;2023-11-21T17:21:28;1.97;85.50
66373;SHT30;53168;51.146;17.120;2023-11-21T17:24:06;1.96;85.49
66373;SHT30;53168;51.146;17.120;2023-11-21T17:26:44;1.93;85.48
66373;SHT30;53168;51.146;17.120;2023-11-21T17:29:22;1.91;85.49
66373;SHT30;53168;51.146;17.120;2023-11-21T17:32:00;1.90;85.53
66373;SHT30;53168;51.146;17.120;2023-11-21T17:38:15;1.92;85.50
66373;SHT30;53168;51.146;17.120;2023-11-21T17:46:14;1.91;85.43
66373;SHT30;53168;51.146;17.120;2023-11-21T17:50:07;1.89;85.42
66373;SHT30;53168;51.146;17.120;2023-11-21T17:53:07;1.86;85.40
66373;SHT30;53168;51.146;17.120;2023-11-21T17:56:27;1.86;85.40
66373;SHT30;53168;51.146;17.120;2023-11-21T18:10:30;1.72;85.10
66373;SHT30;53168;51.146;17.120;2023-11-21T18:13:10;1.71;85.11
66373;SHT30;53168;51.146;17.120;2023-11-21T18:20:16;1.70;85.19
66373;SHT30;53168;51.146;17.120;2023-11-21T18:33:58;1.72;85.10
66373;SHT30;53168;51.146;17.120;2023-11-21T18:40:02;1.68;85.08
66373;SHT30;53168;51.146;17.120;2023-11-21T18:42:54;1.61;85.00
66373;SHT30;53168;51.146;17.120;2023-11-21T18:45:52;1.54;85.01
66373;SHT30;53168;51.146;17.120;2023-11-21T18:51:45;1.40;85.17
66373;SHT30;53168;51.146;17.120;2023-11-21T18:54:18;1.37;85.23
66373;SHT30;53168;51.146;17.120;2023-11-21T18:56:48;1.36;85.33
66373;SHT30;53168;51.146;17.120;2023-11-21T18:59:18;1.34;85.39
66373;SHT30;53168;51.146;17.120;2023-11-21T19:01:49;1.33;85.41
66373;SHT30;53168;51.146;17.120;2023-11-21T19:04:19;1.33;85.44
66373;SHT30;53168;51.146;17.120;2023-11-21T19:06:54;1.33;85.45
66373;SHT30;53168;51.146;17.120;2023-11-21T19:09:34;1.33;85.43
66373;SHT30;53168;51.146;17.120;2023-11-21T19:12:22;1.31;85.48
66373;SHT30;53168;51.146;17.120;2023-11-21T19:15:07;1.33;85.49
66373;SHT30;53168;51.146;17.120;2023-11-21T19:18:07;1.32;85.50
66373;SHT30;53168;51.146;17.120;2023-11-21T19:20:43;1.30;85.48
66373;SHT30;53168;51.146;17.120;2023-11-21T19:23:14;1.29;85.47
66373;SHT30;53168;51.146;17.120;2023-11-21T19:25:47;1.28;85.50
66373;SHT30;53168;51.146;17.120;2023-11-21T19:28:18;1.28;85.50
66373;SHT30;53168;51.146;17.120;2023-11-21T19:30:51;1.28;85.51
66373;SHT30;53168;51.146;17.120;2023-11-21T19:33:25;1.29;85.50
66373;SHT30;53168;51.146;17.120;2023-11-21T19:35:57;1.27;85.50
66373;SHT30;53168;51.146;17.120;2023-11-21T19:38:45;1.26;85.50
66373;SHT30;53168;51.146;17.120;2023-11-21T19:41:28;1.25;85.49
66373;SHT30;53168;51.146;17.120;2023-11-21T19:44:05;1.24;85.48
66373;SHT30;53168;51.146;17.120;2023-11-21T19:47:16;1.24;85.45
66373;SHT30;53168;51.146;17.120;2023-11-21T19:50:07;1.23;85.38
66373;SHT30;53168;51.146;17.120;2023-11-21T20:41:19;1.12;85.42
66373;SHT30;53168;51.146;17.120;2023-11-21T20:43:53;1.09;85.40
66373;SHT30;53168;51.146;17.120;2023-11-21T20:46:29;1.08;85.38
66373;SHT30;53168;51.146;17.120;2023-11-21T20:49:04;1.05;85.32
66373;SHT30;53168;51.146;17.120;2023-11-21T20:51:38;1.03;85.38
66373;SHT30;53168;51.146;17.120;2023-11-21T20:54:16;1.02;85.40
66373;SHT30;53168;51.146;17.120;2023-11-21T20:56:50;0.96;85.30
66373;SHT30;53168;51.146;17.120;2023-11-21T20:59:24;0.90;85.28
66373;SHT30;53168;51.146;17.120;2023-11-21T21:01:58;0.85;85.25
66373;SHT30;53168;51.146;17.120;2023-11-21T21:04:33;0.81;85.29
66373;SHT30;53168;51.146;17.120;2023-11-21T21:07:07;0.78;85.29
66373;SHT30;53168;51.146;17.120;2023-11-21T21:09:42;0.72;85.21
66373;SHT30;53168;51.146;17.120;2023-11-21T21:12:16;0.66;85.21
66373;SHT30;53168;51.146;17.120;2023-11-21T21:14:50;0.63;85.32
66373;SHT30;53168;51.146;17.120;2023-11-21T21:17:24;0.62;85.40